createdAt,value
2022-08-08T00:01:00.285Z,99.90
2022-08-08T00:06:06.591Z,99.90
2022-08-08T00:11:22.660Z,99.90
2022-08-08T00:17:02.051Z,99.90
2022-08-08T00:22:11.756Z,99.90
2022-08-08T00:27:19.626Z,99.90
2022-08-08T00:32:34.979Z,99.90
2022-08-08T00:38:32.372Z,99.90
2022-08-08T00:43:58.833Z,99.90
2022-08-08T00:49:22.127Z,99.90
2022-08-08T00:54:40.463Z,99.90
2022-08-08T01:00:06.852Z,99.90
2022-08-08T01:05:29.203Z,99.90
2022-08-08T01:10:55.849Z,99.90
2022-08-08T01:16:20.460Z,99.90
2022-08-08T01:22:10.367Z,99.90
2022-08-08T01:27:10.686Z,99.90
2022-08-08T01:32:23.179Z,99.90
2022-08-08T01:38:06.752Z,99.90
2022-08-08T01:43:18.530Z,99.90
2022-08-08T01:48:33.095Z,99.90
2022-08-08T01:55:15.852Z,99.90
2022-08-08T01:59:03.609Z,99.90
2022-08-08T02:04:31.779Z,99.90
2022-08-08T02:10:04.442Z,99.90
2022-08-08T02:15:11.449Z,99.90
2022-08-08T02:21:01.039Z,99.90
2022-08-08T02:25:47.519Z,99.90
2022-08-08T02:31:07.168Z,99.90
2022-08-08T02:36:32.132Z,99.90
2022-08-08T02:42:10.567Z,99.90
2022-08-08T02:47:46.796Z,99.90
2022-08-08T02:53:11.084Z,99.90
2022-08-08T02:58:42.224Z,99.90
2022-08-08T03:05:02.957Z,99.90
2022-08-08T03:10:31.746Z,99.90
2022-08-08T03:15:56.875Z,99.90
2022-08-08T03:26:42.810Z,99.90
2022-08-08T03:32:08.593Z,99.90
2022-08-08T03:37:20.023Z,99.90
2022-08-08T03:42:30.867Z,99.90
2022-08-08T03:54:00.213Z,99.90
2022-08-08T03:59:22.735Z,99.90
2022-08-08T04:10:05.781Z,99.90
2022-08-08T04:15:19.179Z,99.90
2022-08-08T04:20:34.760Z,99.90
2022-08-08T05:05:44.566Z,99.90
2022-08-08T05:10:41.497Z,99.90
2022-08-08T05:21:59.922Z,99.90
2022-08-08T05:27:07.106Z,99.90
2022-08-08T05:37:52.985Z,99.90
2022-08-08T05:43:38.774Z,99.90
2022-08-08T05:48:28.817Z,99.90
2022-08-08T05:54:24.582Z,99.90
2022-08-08T05:58:53.886Z,99.90
2022-08-08T06:04:23.496Z,99.90
2022-08-08T06:09:58.395Z,99.90
2022-08-08T06:26:53.202Z,99.90
2022-08-08T06:43:38.660Z,99.90
2022-08-08T06:48:48.761Z,99.90
2022-08-08T06:53:56.974Z,99.90
2022-08-08T06:59:12.580Z,99.90
2022-08-08T07:04:40.076Z,99.90
2022-08-08T07:09:56.514Z,99.90
2022-08-08T07:14:52.530Z,99.90
2022-08-08T07:20:11.342Z,99.90
2022-08-08T07:25:22.211Z,99.90
2022-08-08T07:30:29.370Z,99.90
2022-08-08T07:35:35.790Z,99.90
2022-08-08T07:40:45.706Z,95.80
2022-08-08T07:46:17.969Z,93.20
2022-08-08T07:51:04.450Z,93.30
2022-08-08T07:56:13.556Z,92.10
2022-08-08T08:01:27.170Z,90.50
2022-08-08T08:06:38.636Z,89.60
2022-08-08T08:11:52.846Z,86.60
2022-08-08T08:16:59.883Z,86.60
2022-08-08T08:22:07.926Z,83.20
2022-08-08T08:27:12.721Z,81.40
2022-08-08T08:32:31.702Z,74.00
2022-08-08T08:37:30.593Z,68.20
2022-08-08T08:42:36.094Z,61.30
2022-08-08T08:47:43.869Z,57.70
2022-08-08T08:52:59.442Z,59.70
2022-08-08T08:57:59.173Z,56.50
2022-08-08T09:03:10.268Z,51.80
2022-08-08T09:08:20.765Z,48.20
2022-08-08T09:13:28.213Z,45.60
2022-08-08T09:18:33.849Z,48.50
2022-08-08T09:23:40.754Z,48.70
2022-08-08T09:28:46.951Z,45.00
2022-08-08T09:34:31.451Z,46.20
2022-08-08T09:39:03.826Z,44.00
2022-08-08T09:44:18.870Z,46.30
2022-08-08T09:49:42.535Z,47.10
2022-08-08T09:54:37.293Z,48.40
2022-08-08T10:00:02.217Z,48.90
2022-08-08T10:04:48.587Z,51.20
2022-08-08T10:10:00.346Z,50.40
2022-08-08T10:15:04.745Z,49.60
2022-08-08T10:20:12.843Z,50.90
2022-08-08T10:25:23.005Z,46.70
2022-08-08T10:31:00.806Z,46.00
2022-08-08T10:36:08.764Z,47.40
2022-08-08T10:40:46.049Z,46.40
2022-08-08T10:45:55.624Z,46.30
2022-08-08T10:50:58.874Z,49.00
2022-08-08T10:56:04.511Z,45.10
2022-08-08T11:01:10.904Z,42.80
2022-08-08T11:06:17.727Z,42.40
2022-08-08T11:11:31.693Z,37.70
2022-08-08T11:16:34.641Z,40.20
2022-08-08T11:21:41.757Z,40.40
2022-08-08T11:26:56.687Z,42.30
2022-08-08T11:31:57.540Z,41.70
2022-08-08T11:37:14.682Z,41.90
2022-08-08T11:42:12.127Z,39.40
2022-08-08T11:47:18.322Z,40.80
2022-08-08T11:52:31.665Z,42.50
2022-08-08T11:57:35.303Z,42.60
2022-08-08T12:02:51.231Z,41.50
2022-08-08T12:07:57.000Z,41.60
2022-08-08T12:13:05.420Z,44.00
2022-08-08T12:18:28.654Z,44.20
2022-08-08T12:23:43.504Z,44.20
2022-08-08T12:28:45.334Z,45.40
2022-08-08T12:34:01.780Z,46.10
2022-08-08T12:39:01.521Z,44.50
2022-08-08T12:44:11.115Z,45.10
2022-08-08T12:49:22.262Z,45.80
2022-08-08T12:54:35.967Z,45.50
2022-08-08T13:00:03.790Z,45.20
2022-08-08T13:04:55.871Z,42.50
2022-08-08T13:10:05.981Z,44.40
2022-08-08T13:15:19.420Z,43.00
2022-08-08T13:20:27.243Z,41.80
2022-08-08T13:25:35.520Z,43.00
2022-08-08T13:30:44.030Z,43.60
2022-08-08T13:35:51.067Z,44.40
2022-08-08T13:40:56.542Z,45.20
2022-08-08T13:46:26.669Z,45.40
2022-08-08T13:51:25.127Z,44.80
2022-08-08T13:56:59.829Z,44.70
2022-08-08T14:01:56.702Z,44.30
2022-08-08T14:07:04.310Z,43.80
2022-08-08T14:12:10.300Z,45.70
2022-08-08T14:17:36.194Z,44.60
2022-08-08T14:22:29.798Z,45.30
2022-08-08T14:27:40.331Z,46.30
2022-08-08T14:32:53.389Z,45.50
2022-08-08T14:38:04.921Z,47.30
2022-08-08T14:43:31.441Z,47.20
2022-08-08T14:48:16.282Z,47.80
2022-08-08T14:53:24.069Z,48.50
2022-08-08T14:58:31.243Z,46.60
2022-08-08T15:03:38.672Z,48.30
2022-08-08T15:08:54.845Z,49.50
2022-08-08T15:14:01.980Z,49.60
2022-08-08T15:19:00.958Z,47.10
2022-08-08T15:24:12.853Z,46.10
2022-08-08T15:29:15.002Z,46.60
2022-08-08T15:34:29.590Z,45.60
2022-08-08T15:39:29.870Z,46.90
2022-08-08T15:44:37.031Z,49.20
2022-08-08T15:49:47.777Z,49.00
2022-08-08T15:54:56.164Z,49.30
2022-08-08T16:00:05.983Z,48.90
2022-08-08T16:05:13.865Z,48.20
2022-08-08T16:13:14.268Z,49.40
2022-08-08T16:15:24.880Z,50.20
2022-08-08T16:20:30.266Z,52.00
2022-08-08T16:25:46.612Z,51.80
2022-08-08T16:30:43.444Z,52.60
2022-08-08T16:35:49.677Z,53.40
2022-08-08T16:40:56.714Z,53.20
2022-08-08T16:46:37.474Z,53.60
2022-08-08T16:51:12.650Z,54.20
2022-08-08T16:56:19.850Z,55.20
2022-08-08T17:01:26.940Z,55.80
2022-08-08T17:06:36.941Z,56.30
2022-08-08T17:11:49.252Z,56.00
2022-08-08T17:16:57.795Z,56.30
2022-08-08T17:21:57.278Z,56.80
2022-08-08T17:27:04.594Z,57.30
2022-08-08T17:32:10.100Z,57.90
2022-08-08T17:37:15.518Z,58.10
2022-08-08T17:42:23.077Z,59.20
2022-08-08T17:47:40.058Z,59.40
2022-08-08T17:52:37.554Z,60.20
2022-08-08T17:57:43.408Z,60.80
2022-08-08T18:03:02.079Z,61.00
2022-08-08T18:08:02.499Z,62.50
2022-08-08T18:13:07.664Z,62.60
2022-08-08T18:18:28.610Z,64.50
2022-08-08T18:23:18.919Z,64.70
2022-08-08T18:28:25.593Z,64.80
2022-08-08T18:34:10.487Z,65.00
2022-08-08T18:38:38.527Z,65.40
2022-08-08T18:43:45.555Z,66.10
2022-08-08T18:48:51.049Z,66.80
2022-08-08T18:54:03.345Z,67.10
2022-08-08T18:59:03.935Z,67.60
2022-08-08T19:04:10.861Z,68.50
2022-08-08T19:09:16.644Z,68.50
2022-08-08T19:14:23.757Z,69.10
2022-08-08T19:19:30.149Z,69.60
2022-08-08T19:24:41.877Z,69.80
2022-08-08T19:29:46.102Z,70.30
2022-08-08T19:34:51.883Z,72.00
2022-08-08T19:39:57.378Z,73.40
2022-08-08T19:45:05.232Z,73.30
2022-08-08T19:50:14.854Z,73.30
2022-08-08T19:55:17.698Z,74.80
2022-08-08T20:00:30.627Z,75.50
2022-08-08T20:06:13.502Z,76.10
2022-08-08T20:10:40.657Z,77.00
2022-08-08T20:15:56.221Z,77.40
2022-08-08T20:20:53.324Z,78.50
2022-08-08T20:25:59.107Z,77.80
2022-08-08T20:31:06.206Z,78.70
2022-08-08T20:36:17.089Z,79.40
2022-08-08T20:41:20.537Z,79.40
2022-08-08T20:46:26.041Z,80.90
2022-08-08T20:51:33.292Z,81.90
2022-08-08T20:57:05.871Z,82.50
2022-08-08T21:02:07.184Z,83.50
2022-08-08T21:06:55.412Z,83.30
2022-08-08T21:12:03.240Z,84.10
2022-08-08T21:17:09.493Z,85.70
2022-08-08T21:22:16.054Z,85.50
2022-08-08T21:28:06.639Z,87.40
2022-08-08T21:32:33.638Z,87.50
2022-08-08T21:37:54.651Z,88.70
2022-08-08T21:42:47.818Z,89.30
2022-08-08T21:48:04.549Z,89.30
2022-08-08T21:54:31.567Z,90.20
2022-08-08T21:58:13.488Z,90.10
2022-08-08T22:03:17.798Z,90.30
2022-08-08T22:08:24.429Z,90.50
2022-08-08T22:13:47.786Z,90.90
2022-08-08T22:18:37.193Z,91.80
2022-08-08T22:23:50.542Z,92.20
2022-08-08T22:29:05.063Z,92.80
2022-08-08T22:34:12.312Z,94.00
2022-08-08T22:39:06.606Z,94.10
2022-08-08T22:44:13.234Z,94.70
2022-08-08T22:49:20.236Z,95.30
2022-08-08T22:54:31.788Z,96.10
2022-08-08T22:59:35.997Z,96.80
2022-08-08T23:04:42.097Z,97.60
2022-08-08T23:09:58.845Z,99.00
2022-08-08T23:15:10.912Z,99.00
2022-08-08T23:20:05.758Z,99.50
2022-08-08T23:25:11.436Z,99.90
2022-08-08T23:30:18.625Z,99.90
2022-08-08T23:35:25.309Z,99.90
2022-08-08T23:40:32.727Z,99.90
2022-08-08T23:49:06.160Z,99.90
2022-08-08T23:50:45.958Z,99.90
2022-08-08T23:55:52.349Z,99.90
